KLSF

Lawson AAF (Fort Benning) Airport

Fort Benning(Columbus), Georgia, USA
METAR KLSF 221001Z AUTO 13005KT 10SM OVC007 22/22 A3004 RMK AO2 SLP176
Observed Flight Rules
May-22 @ 10:01 UTC (12 minutes ago) Instrument Flight Rules
Wind Visibility Clouds
130° at 5 knots 10 miles
  • Overcast at 700' AGL
Temperatures Readings
Current 22°C / 72°F
Dewpoint 22°C / 72°F
Humidity 100%
Altimeter 30.04" Hg
Pressure 1017.6 hPa
Elevation 71
METAR KLSF 221001Z AUTO 13005KT 10SM OVC007 22/22 A3004 RMK AO2 SLP176
Observed Flight Rules
May-22 @ 10:01 UTC
(12 minutes ago)
IFR
Wind Visibility
130° at 5 knots 10 miles
Clouds
  • Overcast at 700' AGL
Temperature Dewpoint
22°C / 72°F 22°C / 72°F
Humidity Altimeter Pressure
100% 30.04" Hg 1017.6 hPa